Time;durP1;ratioP1;P1;durP2;ratioP2;P2;SDS_P1;SDS_P2;PMS_P1;PMS_P2;Temp;Humidity;BMP_temperature;BMP_pressure;BME280_temperature;BME280_humidity;BME280_pressure;Samples;Min_cycle;Max_cycle;Signal;HPM_P1;HPM_P2
2022/06/03 00:00:53;;;;;;;4.97;3.90;;;11.70;99.90;;;;;;5071760;28;20209;-60
2022/06/03 00:03:42;;;;;;;5.10;3.77;;;11.70;1.00;;;;;;5071361;28;20259;-59
2022/06/03 00:06:31;;;;;;;4.43;4.03;;;11.70;1.00;;;;;;5071583;28;20209;-60
2022/06/03 00:09:21;;;;;;;5.17;4.07;;;11.60;1.00;;;;;;5071363;28;20667;-60
2022/06/03 00:12:32;;;;;;;6.60;4.00;;;11.60;1.00;;;;;;5071711;28;20258;-58
2022/06/03 00:15:12;;;;;;;4.47;3.67;;;11.60;1.00;;;;;;5028726;28;20234;-60
2022/06/03 00:17:51;;;;;;;5.47;3.87;;;11.50;91.10;;;;;;5028584;28;20672;-60
2022/06/03 00:20:28;;;;;;;3.97;3.50;;;11.50;99.90;;;;;;5055018;28;20275;-60
2022/06/03 00:23:32;;;;;;;4.33;3.47;;;11.50;99.90;;;;;;5071455;28;20270;-60
2022/06/03 00:26:20;;;;;;;3.80;3.30;;;11.50;99.90;;;;;;5054273;28;20205;-56
2022/06/03 00:29:05;;;;;;;5.33;3.13;;;11.50;99.90;;;;;;5071452;28;20209;-60
2022/06/03 00:32:04;;;;;;;4.90;3.43;;;11.50;99.90;;;;;;5071094;28;20209;-59
2022/06/03 00:34:52;;;;;;;4.33;3.60;;;11.40;99.90;;;;;;5071377;28;20225;-56
2022/06/03 00:37:31;;;;;;;5.67;3.93;;;11.40;99.90;;;;;;5071054;28;20278;-57
2022/06/03 00:40:13;;;;;;;5.50;3.53;;;11.40;99.90;;;;;;5074122;28;20219;-59
2022/06/03 00:43:03;;;;;;;5.87;3.63;;;11.30;99.90;;;;;;5074757;28;20212;-56
2022/06/03 00:45:41;;;;;;;3.57;3.27;;;11.20;1.00;;;;;;5075053;28;20217;-60
2022/06/03 00:48:29;;;;;;;4.37;3.70;;;11.20;99.90;;;;;;5074521;28;20208;-57
2022/06/03 00:51:22;;;;;;;3.93;3.53;;;11.10;1.00;;;;;;5074570;28;20315;-60
2022/06/03 00:54:16;;;;;;;6.77;3.60;;;11.20;99.90;;;;;;5074704;28;20282;-58
2022/06/03 00:57:00;;;;;;;5.77;3.67;;;11.20;99.90;;;;;;5074241;28;20205;-60
2022/06/03 00:59:53;;;;;;;3.83;3.40;;;11.10;99.90;;;;;;5074670;28;20251;-60
2022/06/03 01:02:39;;;;;;;4.00;3.20;;;11.10;99.90;;;;;;5074546;28;20243;-60
2022/06/03 01:05:15;;;;;;;5.13;3.00;;;11.00;99.90;;;;;;5074353;28;20221;-58
2022/06/03 01:07:55;;;;;;;4.03;3.40;;;11.00;1.00;;;;;;5073738;28;20671;-60
2022/06/03 01:10:36;;;;;;;4.47;3.50;;;10.90;1.00;;;;;;5074472;28;20258;-61
2022/06/03 01:13:20;;;;;;;3.97;3.27;;;10.90;99.90;;;;;;5074451;28;20267;-57
2022/06/03 01:15:55;;;;;;;4.30;3.00;;;10.90;99.90;;;;;;5074288;28;20678;-59
2022/06/03 01:18:35;;;;;;;4.90;3.43;;;10.80;1.00;;;;;;5077663;28;20288;-60
2022/06/03 01:21:10;;;;;;;4.40;3.70;;;10.80;99.90;;;;;;5077353;28;20261;-60
2022/06/03 01:24:11;;;;;;;4.33;3.40;;;10.80;1.00;;;;;;5074406;28;20228;-59
2022/06/03 01:27:11;;;;;;;3.57;3.10;;;10.80;1.00;;;;;;5073499;28;20671;-60
2022/06/03 01:30:10;;;;;;;4.63;4.13;;;10.70;1.00;;;;;;5070809;28;20709;-56
2022/06/03 01:33:01;;;;;;;3.60;3.30;;;10.70;1.00;;;;;;5070080;28;20203;-59
2022/06/03 01:36:06;;;;;;;4.83;3.67;;;10.70;1.00;;;;;;5073904;28;20708;-59
2022/06/03 01:38:49;;;;;;;4.90;3.57;;;10.70;1.00;;;;;;5073939;28;20236;-58
2022/06/03 01:41:31;;;;;;;4.10;3.53;;;10.60;1.00;;;;;;5073918;28;20270;-58
2022/06/03 01:44:28;;;;;;;4.80;3.60;;;10.60;1.00;;;;;;5073967;28;20277;-60
2022/06/03 01:47:29;;;;;;;4.70;4.10;;;10.60;6.30;;;;;;5073282;28;20204;-61
2022/06/03 01:50:24;;;;;;;5.10;4.10;;;10.50;10.50;;;;;;5063790;28;20213;-61
2022/06/03 01:53:12;;;;;;;6.50;4.80;;;10.50;14.30;;;;;;5071787;28;20302;-61
2022/06/03 01:56:05;;;;;;;5.03;4.10;;;10.50;16.80;;;;;;5073647;28;20630;-61
2022/06/03 01:58:56;;;;;;;5.43;4.33;;;10.40;20.30;;;;;;5073382;28;20698;-61
2022/06/03 02:02:01;;;;;;;4.33;3.93;;;10.40;23.70;;;;;;5071648;28;20208;-61
2022/06/03 02:04:48;;;;;;;5.67;4.37;;;10.30;30.30;;;;;;5055343;28;20289;-61
2022/06/03 02:07:45;;;;;;;5.10;4.23;;;10.30;39.60;;;;;;5073140;28;20266;-59
2022/06/03 02:10:39;;;;;;;4.97;4.00;;;10.20;47.80;;;;;;5072989;28;20207;-61
2022/06/03 02:13:33;;;;;;;4.57;4.00;;;10.20;56.00;;;;;;5073316;28;20208;-60
2022/06/03 02:16:36;;;;;;;6.43;4.60;;;10.20;61.50;;;;;;5072834;28;20270;-61
2022/06/03 02:19:27;;;;;;;7.00;4.33;;;10.10;66.50;;;;;;5059071;28;20227;-61
2022/06/03 02:22:31;;;;;;;5.30;4.13;;;10.10;72.70;;;;;;5073123;28;20219;-61
2022/06/03 02:25:21;;;;;;;5.87;4.90;;;10.10;78.50;;;;;;5072784;28;20231;-61
2022/06/03 02:28:23;;;;;;;5.87;4.63;;;10.00;87.40;;;;;;5072555;28;20197;-61
2022/06/03 02:31:18;;;;;;;5.90;4.90;;;10.00;92.00;;;;;;5072771;28;20212;-60
2022/06/03 02:33:58;;;;;;;6.63;4.63;;;10.00;95.00;;;;;;5073649;28;20285;-61
2022/06/03 02:37:04;;;;;;;6.40;5.20;;;9.90;97.30;;;;;;5073916;28;20215;-61
2022/06/03 02:40:03;;;;;;;7.33;5.20;;;9.90;99.00;;;;;;5074044;28;20233;-60
2022/06/03 02:43:07;;;;;;;7.97;5.40;;;9.80;99.90;;;;;;5064323;28;20211;-61
2022/06/03 02:46:10;;;;;;;7.37;5.47;;;9.80;99.90;;;;;;5072492;28;20203;-61
2022/06/03 02:49:17;;;;;;;8.30;6.00;;;9.80;99.90;;;;;;5072501;28;20207;-61
2022/06/03 02:52:07;;;;;;;6.87;5.90;;;9.70;99.90;;;;;;5072274;28;20213;-61
2022/06/03 02:55:03;;;;;;;15.30;6.10;;;9.60;99.90;;;;;;5072597;28;20255;-61
2022/06/03 02:57:52;;;;;;;7.67;5.63;;;9.60;99.90;;;;;;5071788;28;20265;-61
2022/06/03 03:00:21;;;;;;;7.10;5.17;;;9.60;99.90;;;;;;5072514;28;20294;-61
2022/06/03 03:03:30;;;;;;;8.40;5.87;;;9.50;99.90;;;;;;5072101;28;20217;-61
2022/06/03 03:06:24;;;;;;;9.27;6.13;;;9.50;99.90;;;;;;5052080;28;20217;-61
2022/06/03 03:09:20;;;;;;;8.03;5.83;;;9.50;99.90;;;;;;5072316;28;20210;-61
2022/06/03 03:12:14;;;;;;;8.43;5.63;;;9.50;99.90;;;;;;5072372;28;20253;-60
2022/06/03 03:15:17;;;;;;;7.23;5.40;;;9.40;99.90;;;;;;5071791;28;20238;-61
2022/06/03 03:18:03;;;;;;;9.53;6.03;;;9.30;99.90;;;;;;5071754;28;20208;-60
2022/06/03 03:21:07;;;;;;;7.57;5.60;;;9.30;99.90;;;;;;5071856;28;20254;-61
2022/06/03 03:24:08;;;;;;;8.80;5.77;;;9.30;99.90;;;;;;5055864;28;20235;-61
2022/06/03 03:26:50;;;;;;;10.73;6.03;;;9.30;99.90;;;;;;5071461;28;20262;-60
2022/06/03 03:29:52;;;;;;;7.37;5.70;;;9.30;99.90;;;;;;5071925;28;20201;-61
2022/06/03 03:32:29;;;;;;;8.47;6.10;;;9.20;99.90;;;;;;5069912;28;20213;-61
2022/06/03 03:35:13;;;;;;;9.07;6.03;;;9.20;99.90;;;;;;5071962;28;20669;-61
2022/06/03 03:38:21;;;;;;;8.17;5.47;;;9.20;99.90;;;;;;5071227;28;20207;-60
2022/06/03 03:41:18;;;;;;;9.97;5.83;;;9.20;99.90;;;;;;5072076;28;20700;-60
2022/06/03 03:44:29;;;;;;;6.23;5.20;;;9.20;99.90;;;;;;5071887;28;20709;-61
2022/06/03 03:47:38;;;;;;;6.30;5.20;;;9.20;99.90;;;;;;5071396;28;20210;-61
2022/06/03 03:50:33;;;;;;;7.43;5.83;;;9.20;99.90;;;;;;5071662;28;20654;-60
2022/06/03 03:53:30;;;;;;;8.93;5.80;;;9.20;99.90;;;;;;5071642;28;20205;-60
2022/06/03 03:56:35;;;;;;;6.00;5.20;;;9.20;99.90;;;;;;5071548;28;20214;-61
2022/06/03 03:59:41;;;;;;;12.07;5.57;;;9.20;99.90;;;;;;5071382;28;20773;-60
2022/06/03 04:02:44;;;;;;;9.00;6.30;;;9.20;99.90;;;;;;5071811;28;20207;-61
2022/06/03 04:05:34;;;;;;;8.83;6.07;;;9.20;99.90;;;;;;5064475;28;20229;-58
2022/06/03 04:08:36;;;;;;;10.73;6.43;;;9.20;99.90;;;;;;5071444;28;20202;-61
2022/06/03 04:11:39;;;;;;;7.37;5.97;;;9.20;99.90;;;;;;5071111;28;20209;-60
2022/06/03 04:14:45;;;;;;;8.33;5.00;;;9.30;99.90;;;;;;5073360;28;20274;-60
2022/06/03 04:17:37;;;;;;;8.30;5.40;;;9.30;99.90;;;;;;5074941;28;20205;-60
2022/06/03 04:20:33;;;;;;;6.97;5.73;;;9.40;99.90;;;;;;5075325;28;20238;-60
2022/06/03 04:23:28;;;;;;;7.50;5.70;;;9.40;99.90;;;;;;5075461;28;20204;-61
2022/06/03 04:26:41;;;;;;;10.70;5.83;;;9.50;99.90;;;;;;5075093;28;20215;-60
2022/06/03 04:29:50;;;;;;;9.27;5.40;;;9.50;99.90;;;;;;5075398;28;20206;-61
2022/06/03 04:33:13;;;;;;;5.97;4.93;;;9.60;99.90;;;;;;5074741;28;20216;-61
2022/06/03 04:36:16;;;;;;;7.23;5.77;;;9.70;99.90;;;;;;5061222;28;20208;-62
2022/06/03 04:39:18;;;;;;;7.37;5.37;;;9.70;99.90;;;;;;5075718;28;20230;-61
2022/06/03 04:42:31;;;;;;;6.13;5.27;;;9.70;99.90;;;;;;5074190;28;20202;-60
2022/06/03 04:45:29;;;;;;;6.83;5.33;;;9.80;99.90;;;;;;5074148;28;20231;-60
2022/06/03 04:48:48;;;;;;;8.47;5.33;;;9.80;99.90;;;;;;5074296;28;20650;-60
2022/06/03 04:51:48;;;;;;;7.87;5.10;;;9.90;99.90;;;;;;5074891;28;20208;-60
2022/06/03 04:55:13;;;;;;;6.67;5.30;;;9.90;99.90;;;;;;5074223;28;20224;-61
2022/06/03 04:58:20;;;;;;;7.17;5.30;;;10.00;99.90;;;;;;5056740;28;20299;-60
2022/06/03 05:01:28;;;;;;;7.83;5.03;;;10.10;99.90;;;;;;5074343;28;20204;-60
2022/06/03 05:04:33;;;;;;;7.40;5.63;;;10.20;99.90;;;;;;5056814;28;20718;-60
2022/06/03 05:07:31;;;;;;;6.33;4.93;;;10.30;99.90;;;;;;5073854;28;20699;-59
2022/06/03 05:10:43;;;;;;;7.10;5.00;;;10.40;99.90;;;;;;5074438;28;20200;-61
2022/06/03 05:13:40;;;;;;;7.13;5.17;;;10.40;99.90;;;;;;5074156;28;20727;-59
2022/06/03 05:16:41;;;;;;;5.80;5.20;;;10.50;99.90;;;;;;5073369;28;20215;-61
2022/06/03 05:20:02;;;;;;;6.70;4.90;;;10.60;99.90;;;;;;5074098;28;20710;-61
2022/06/03 05:22:59;;;;;;;5.33;4.73;;;10.70;99.90;;;;;;5042549;28;20205;-60
2022/06/03 05:26:06;;;;;;;5.50;4.53;;;10.70;99.90;;;;;;5040751;28;20574;-62
2022/06/03 05:29:01;;;;;;;5.33;4.67;;;10.90;99.90;;;;;;5048390;28;20205;-62
2022/06/03 05:32:14;;;;;;;6.27;4.40;;;11.00;99.90;;;;;;5073535;28;20215;-62
2022/06/03 05:35:23;;;;;;;5.37;4.43;;;11.10;93.60;;;;;;5073126;28;20225;-63
2022/06/03 05:38:14;;;;;;;4.80;4.00;;;11.20;86.30;;;;;;5073087;28;20209;-62
2022/06/03 05:41:00;;;;;;;8.17;4.40;;;11.30;81.50;;;;;;5073157;28;20224;-63
2022/06/03 05:43:48;;;;;;;5.23;4.17;;;11.50;78.60;;;;;;5073413;28;20315;-62
2022/06/03 05:46:24;;;;;;;5.73;4.30;;;11.50;69.70;;;;;;5072412;28;20286;-61
2022/06/03 05:49:22;;;;;;;4.80;4.30;;;11.60;58.10;;;;;;5073225;28;20720;-62
2022/06/03 05:51:59;;;;;;;4.97;3.87;;;11.80;48.90;;;;;;5073199;28;20586;-57
2022/06/03 05:54:39;;;;;;;5.13;4.27;;;12.00;29.10;;;;;;5072884;28;20236;-61
2022/06/03 05:57:30;;;;;;;5.43;3.57;;;12.10;18.10;;;;;;5072169;28;20296;-59
2022/06/03 06:00:23;;;;;;;5.30;3.77;;;12.40;1.00;;;;;;5073046;28;20284;-61
2022/06/03 06:02:57;;;;;;;7.70;5.43;;;12.50;1.00;;;;;;5070265;28;20230;-62
2022/06/03 06:05:36;;;;;;;4.33;3.67;;;12.70;1.00;;;;;;5052534;28;20575;-63
2022/06/03 06:08:17;;;;;;;4.77;3.53;;;12.80;1.00;;;;;;5052360;28;20203;-62
2022/06/03 06:10:49;;;;;;;6.93;4.23;;;13.00;1.00;;;;;;5053048;28;20202;-62
2022/06/03 06:13:38;;;;;;;4.00;3.27;;;13.10;1.00;;;;;;5052532;28;20232;-63
2022/06/03 06:16:08;;;;;;;4.53;3.50;;;13.20;1.00;;;;;;5051876;28;20216;-63
2022/06/03 06:18:56;;;;;;;4.50;3.20;;;13.50;1.00;;;;;;5052650;28;20237;-62
2022/06/03 06:21:37;;;;;;;3.23;2.93;;;13.60;1.00;;;;;;5052294;28;20630;-62
2022/06/03 06:24:12;;;;;;;4.37;3.00;;;13.70;99.90;;;;;;5071012;28;20234;-59
2022/06/03 06:27:09;;;;;;;4.03;3.20;;;13.90;1.00;;;;;;5071424;28;20201;-59
2022/06/03 06:30:12;;;;;;;3.93;3.13;;;14.00;1.00;;;;;;5072443;28;20254;-58
2022/06/03 06:33:18;;;;;;;6.27;3.10;;;14.30;1.00;;;;;;5072475;28;20643;-66
2022/06/03 06:36:20;;;;;;;3.87;2.90;;;14.40;22.80;;;;;;5072025;28;20204;-59
2022/06/03 06:39:09;;;;;;;3.00;2.50;;;14.60;99.90;;;;;;5071553;28;20629;-58
2022/06/03 06:41:45;;;;;;;5.07;3.20;;;14.70;99.90;;;;;;5072182;28;20671;-60
2022/06/03 06:44:20;;;;;;;3.23;2.87;;;14.90;94.40;;;;;;5071495;28;20305;-58
2022/06/03 06:46:59;;;;;;;3.47;3.17;;;15.00;1.00;;;;;;5072054;28;20204;-60
2022/06/03 06:49:29;;;;;;;3.20;2.47;;;15.10;1.00;;;;;;5072539;28;20678;-59
2022/06/03 06:52:07;;;;;;;3.90;2.70;;;15.20;1.00;;;;;;5073490;28;20205;-59
2022/06/03 06:54:51;;;;;;;4.50;2.80;;;15.40;1.00;;;;;;5071802;28;20311;-59
2022/06/03 06:57:22;;;;;;;3.57;3.00;;;15.50;1.00;;;;;;5071543;28;20201;-58
2022/06/03 06:59:54;;;;;;;4.00;2.80;;;15.70;1.00;;;;;;5071512;28;20354;-59
2022/06/03 07:02:28;;;;;;;4.60;3.00;;;15.80;99.90;;;;;;5071389;28;20679;-58
2022/06/03 07:05:00;;;;;;;2.90;2.60;;;16.00;99.90;;;;;;5071338;28;20229;-59
2022/06/03 07:07:33;;;;;;;3.70;2.40;;;16.00;99.90;;;;;;5071162;28;20235;-59
2022/06/03 07:10:03;;;;;;;3.53;2.70;;;16.10;99.90;;;;;;5071691;28;20197;-59
2022/06/03 07:12:36;;;;;;;3.13;2.43;;;16.20;99.90;;;;;;5071130;28;20190;-55
2022/06/03 07:15:07;;;;;;;2.93;2.20;;;16.20;99.90;;;;;;5071034;28;20241;-59
2022/06/03 07:20:40;;;;;;;2.90;2.60;;;16.60;99.90;;;;;;5070817;28;20702;-62
2022/06/03 07:23:13;;;;;;;3.30;2.60;;;16.80;99.90;;;;;;5071611;28;20212;-61
2022/06/03 07:25:45;;;;;;;3.97;2.63;;;16.80;99.90;;;;;;5070815;28;20216;-60
2022/06/03 07:28:26;;;;;;;3.63;2.30;;;16.80;99.90;;;;;;5070978;28;20754;-60
2022/06/03 07:30:57;;;;;;;3.13;2.80;;;17.00;99.90;;;;;;5070854;28;20250;-62
2022/06/03 07:33:41;;;;;;;3.97;2.60;;;17.20;99.90;;;;;;5071628;28;20232;-62
2022/06/03 07:36:14;;;;;;;3.30;3.00;;;17.30;99.90;;;;;;5070479;28;20216;-62
2022/06/03 07:38:47;;;;;;;6.00;2.87;;;17.40;99.90;;;;;;5071206;28;20222;-63
2022/06/03 07:41:20;;;;;;;3.00;2.53;;;17.50;99.90;;;;;;5070872;28;20639;-62
2022/06/03 07:43:53;;;;;;;4.23;2.50;;;17.70;99.90;;;;;;5071115;28;20232;-62
2022/06/03 07:46:23;;;;;;;3.13;2.30;;;17.90;99.90;;;;;;5070494;28;20205;-62
2022/06/03 07:48:52;;;;;;;6.73;4.87;;;18.10;99.90;;;;;;5070220;28;20635;-60
2022/06/03 07:51:25;;;;;;;5.20;3.13;;;18.30;99.90;;;;;;5071074;28;20213;-61
2022/06/03 07:54:00;;;;;;;2.53;2.33;;;18.30;99.90;;;;;;5070475;28;20247;-61
2022/06/03 07:56:30;;;;;;;3.53;2.33;;;18.30;99.90;;;;;;5070160;28;20211;-61
2022/06/03 07:58:59;;;;;;;4.60;2.63;;;18.60;99.90;;;;;;5071516;28;20262;-61
2022/06/03 08:01:30;;;;;;;2.93;2.33;;;18.60;99.90;;;;;;5070910;28;20231;-60
2022/06/03 08:03:58;;;;;;;5.03;2.30;;;18.60;99.90;;;;;;5071578;28;20897;-61
2022/06/03 08:10:56;;;;;;;3.87;2.50;;;18.70;99.90;;;;;;5069687;28;20266;-62
2022/06/03 08:12:02;;;;;;;6.13;2.30;;;19.10;99.90;;;;;;5070983;28;20330;-62
2022/06/03 08:14:29;;;;;;;5.50;2.23;;;19.10;99.90;;;;;;5070527;28;20241;-62
2022/06/03 08:16:56;;;;;;;2.73;2.30;;;19.00;99.90;;;;;;5069679;28;20204;-62
2022/06/03 08:19:27;;;;;;;4.43;2.10;;;19.00;99.90;;;;;;5071072;28;20221;-62
2022/06/03 08:21:56;;;;;;;4.87;2.37;;;18.90;99.90;;;;;;5070881;28;20691;-62
2022/06/03 08:24:25;;;;;;;3.50;2.50;;;19.10;99.90;;;;;;5070185;28;20294;-62
2022/06/03 08:26:56;;;;;;;3.33;2.20;;;19.40;99.90;;;;;;5070284;28;20294;-62
2022/06/03 08:29:31;;;;;;;4.23;2.23;;;19.40;99.90;;;;;;5070268;28;20216;-62
2022/06/03 08:31:59;;;;;;;3.63;2.07;;;19.30;99.90;;;;;;5070542;28;20212;-62
2022/06/03 08:34:32;;;;;;;4.10;2.20;;;19.40;99.90;;;;;;5069965;28;20225;-61
2022/06/03 08:37:01;;;;;;;5.93;2.47;;;19.60;99.90;;;;;;5070286;28;20912;-62
2022/06/03 08:39:31;;;;;;;4.83;2.27;;;19.70;99.90;;;;;;5070492;28;20676;-59
2022/06/03 08:42:23;;;;;;;2.30;2.10;;;19.60;99.90;;;;;;5069801;28;20215;-60
2022/06/03 08:45:06;;;;;;;4.70;2.30;;;19.70;99.90;;;;;;5071814;28;20316;-59
2022/06/03 08:47:39;;;;;;;4.73;2.23;;;19.80;99.90;;;;;;5070417;28;20213;-62
2022/06/03 08:50:14;;;;;;;3.47;2.17;;;20.10;99.90;;;;;;5071103;28;20242;-60
2022/06/03 08:52:49;;;;;;;4.90;1.90;;;20.20;99.90;;;;;;5072057;28;20760;-61
2022/06/03 08:55:31;;;;;;;2.67;2.00;;;20.40;99.90;;;;;;5070409;28;20295;-60
2022/06/03 08:58:04;;;;;;;3.03;1.70;;;20.30;99.90;;;;;;5069865;28;20205;-61
2022/06/03 09:00:49;;;;;;;1.80;1.70;;;20.40;99.90;;;;;;5072444;28;20225;-63
2022/06/03 09:03:18;;;;;;;2.73;1.83;;;20.50;99.90;;;;;;5073803;28;20269;-63
2022/06/03 09:05:52;;;;;;;3.10;1.90;;;20.70;99.90;;;;;;5073557;28;20216;-63
2022/06/03 09:08:25;;;;;;;4.87;1.80;;;20.80;99.90;;;;;;5073525;28;20683;-62
2022/06/03 09:11:00;;;;;;;5.50;2.13;;;20.70;99.90;;;;;;5073269;28;20592;-61
2022/06/03 09:13:34;;;;;;;1.97;1.50;;;20.60;99.90;;;;;;5073933;28;20794;-62
2022/06/03 09:16:01;;;;;;;2.53;1.87;;;20.80;99.90;;;;;;5073043;28;20216;-61
2022/06/03 09:18:33;;;;;;;2.13;1.50;;;20.70;99.90;;;;;;5073747;28;20895;-62
2022/06/03 09:21:07;;;;;;;3.23;2.00;;;20.50;99.90;;;;;;5073450;28;20227;-62
2022/06/03 09:23:39;;;;;;;1.83;1.73;;;20.50;99.90;;;;;;5074132;28;20600;-63
2022/06/03 09:26:11;;;;;;;4.20;1.50;;;20.70;99.90;;;;;;5073042;28;20208;-60
2022/06/03 09:28:38;;;;;;;3.33;1.83;;;20.90;99.90;;;;;;5073200;28;20254;-60
2022/06/03 09:31:09;;;;;;;1.93;1.60;;;21.10;99.90;;;;;;5073589;28;20212;-57
2022/06/03 09:33:38;;;;;;;1.90;1.60;;;21.10;99.90;;;;;;5073126;28;20220;-57
2022/06/03 09:36:13;;;;;;;1.60;1.30;;;21.30;99.90;;;;;;5072608;28;20205;-59
2022/06/03 09:38:44;;;;;;;1.97;1.40;;;21.40;99.90;;;;;;5073276;28;20234;-64
2022/06/03 09:41:11;;;;;;;1.87;1.73;;;21.50;99.90;;;;;;5073272;28;20232;-63
2022/06/03 09:43:43;;;;;;;1.83;1.40;;;21.50;99.90;;;;;;5073214;28;20221;-62
2022/06/03 09:46:12;;;;;;;5.70;1.60;;;21.70;99.90;;;;;;5072193;28;20675;-60
2022/06/03 09:48:41;;;;;;;3.90;3.20;;;21.80;99.90;;;;;;5073062;28;20578;-61
2022/06/03 09:51:14;;;;;;;2.33;1.20;;;21.90;99.90;;;;;;5072532;28;20291;-61
2022/06/03 09:53:43;;;;;;;2.43;1.40;;;21.70;99.90;;;;;;5072879;28;20280;-61
2022/06/03 09:56:20;;;;;;;1.80;1.50;;;21.50;99.90;;;;;;5072020;28;20209;-62
2022/06/03 09:58:50;;;;;;;1.43;1.30;;;21.40;99.90;;;;;;5072633;28;20269;-60
2022/06/03 10:01:17;;;;;;;4.17;1.60;;;21.50;99.90;;;;;;5073124;28;20320;-60
2022/06/03 10:03:43;;;;;;;3.07;1.23;;;21.60;99.90;;;;;;5072453;28;20229;-64
2022/06/03 10:06:43;;;;;;;1.37;1.20;;;21.70;99.90;;;;;;5072296;28;20570;-63
2022/06/03 10:14:28;;;;;;;4.00;1.40;;;21.70;99.90;;;;;;5071759;28;20232;-61
2022/06/03 10:16:55;;;;;;;1.80;1.60;;;21.50;99.90;;;;;;5072337;28;20230;-61
2022/06/03 10:19:22;;;;;;;3.33;1.30;;;21.60;99.90;;;;;;5072760;28;20675;-62
2022/06/03 10:21:56;;;;;;;5.50;1.67;;;21.70;99.90;;;;;;5071999;28;20227;-61
2022/06/03 10:24:29;;;;;;;3.27;1.53;;;21.80;99.90;;;;;;5072147;28;20278;-60
2022/06/03 10:27:00;;;;;;;3.40;1.47;;;21.90;99.90;;;;;;5071403;28;20210;-61
2022/06/03 10:29:29;;;;;;;1.10;1.00;;;22.10;99.90;;;;;;5072571;28;20205;-62
2022/06/03 10:32:00;;;;;;;1.40;1.23;;;22.20;99.90;;;;;;5071769;28;20205;-62
2022/06/03 10:34:27;;;;;;;2.20;1.80;;;22.30;99.90;;;;;;5071854;28;20711;-62
2022/06/03 10:36:57;;;;;;;1.70;1.20;;;22.30;99.90;;;;;;5071743;28;20295;-58
2022/06/03 10:39:27;;;;;;;9.87;2.43;;;21.90;99.90;;;;;;5071688;28;20319;-60
2022/06/03 10:41:58;;;;;;;1.90;1.70;;;21.70;99.90;;;;;;5072328;28;20232;-62
2022/06/03 10:44:27;;;;;;;1.60;1.33;;;21.60;99.90;;;;;;5071015;28;20315;-62
2022/06/03 10:46:56;;;;;;;2.40;1.57;;;21.70;99.90;;;;;;5071441;28;20289;-61
2022/06/03 10:49:24;;;;;;;1.73;1.63;;;21.80;99.90;;;;;;5071865;28;20209;-62
2022/06/03 11:02:54;;;;;;;1.80;1.67;;;22.30;99.90;;;;;;5071491;28;20212;-62
2022/06/03 11:05:24;;;;;;;3.47;1.83;;;22.60;99.90;;;;;;5071586;28;20262;-61
2022/06/03 11:07:59;;;;;;;1.83;1.50;;;22.70;99.90;;;;;;5071974;28;20208;-62
2022/06/03 11:10:31;;;;;;;3.90;1.73;;;22.70;99.90;;;;;;5073809;28;20292;-62
2022/06/03 11:12:59;;;;;;;2.20;1.57;;;22.90;99.90;;;;;;5073236;28;20209;-62
2022/06/03 11:15:31;;;;;;;1.90;1.70;;;23.00;99.90;;;;;;5072162;28;20641;-62
2022/06/03 11:18:00;;;;;;;2.83;1.70;;;23.20;99.90;;;;;;5071317;28;20767;-62
2022/06/03 11:20:35;;;;;;;3.27;1.50;;;23.20;99.90;;;;;;5071094;28;20231;-62
2022/06/03 11:23:03;;;;;;;4.07;1.80;;;23.20;99.90;;;;;;5070709;28;20220;-62
2022/06/03 11:25:32;;;;;;;1.60;1.50;;;23.10;99.90;;;;;;5070999;28;20209;-62
2022/06/03 11:28:02;;;;;;;2.13;1.70;;;23.30;99.90;;;;;;5071251;28;20205;-61
2022/06/03 11:30:34;;;;;;;2.77;1.50;;;23.00;99.90;;;;;;5071009;28;20254;-62
2022/06/03 11:33:05;;;;;;;2.03;1.60;;;22.80;99.90;;;;;;5070401;28;20266;-62
2022/06/03 11:35:38;;;;;;;2.83;1.43;;;22.70;99.90;;;;;;5071151;28;20209;-63
2022/06/03 11:38:09;;;;;;;1.67;1.43;;;22.80;99.90;;;;;;5070072;28;20232;-63
2022/06/03 11:40:41;;;;;;;2.00;1.60;;;22.90;99.90;;;;;;5071067;28;20221;-63
2022/06/03 11:43:12;;;;;;;1.70;1.60;;;22.90;99.90;;;;;;5070347;28;20886;-64
2022/06/03 11:45:43;;;;;;;1.97;1.70;;;23.10;99.90;;;;;;5071315;28;20621;-60
2022/06/03 11:48:17;;;;;;;3.73;1.40;;;23.20;99.90;;;;;;5070721;28;20204;-65
2022/06/03 11:50:44;;;;;;;3.10;1.70;;;23.30;99.90;;;;;;5071062;28;20735;-64
2022/06/03 11:53:10;;;;;;;2.70;1.60;;;23.20;99.90;;;;;;5070945;28;20212;-64
2022/06/03 11:55:39;;;;;;;1.70;1.60;;;23.20;99.90;;;;;;5070584;28;20674;-64
2022/06/03 11:58:13;;;;;;;1.97;1.57;;;23.40;99.90;;;;;;5070791;28;20770;-60
2022/06/03 12:00:44;;;;;;;2.27;1.60;;;23.50;99.90;;;;;;5070349;28;20665;-60
2022/06/03 12:03:26;;;;;;;1.67;1.57;;;23.40;99.90;;;;;;5070275;28;20246;-59
2022/06/03 12:05:58;;;;;;;1.50;1.20;;;23.50;99.90;;;;;;5069778;28;20229;-65
2022/06/03 12:08:32;;;;;;;1.50;1.30;;;23.60;99.90;;;;;;5070953;28;20670;-61
2022/06/03 12:11:04;;;;;;;1.50;1.40;;;23.70;99.90;;;;;;5071229;28;20253;-66
2022/06/03 12:13:33;;;;;;;1.53;1.30;;;23.60;99.90;;;;;;5070937;28;20274;-65
2022/06/03 12:16:05;;;;;;;3.63;1.40;;;23.70;99.90;;;;;;5070272;28;20209;-64
2022/06/03 12:18:57;;;;;;;3.13;1.43;;;23.90;99.90;;;;;;5070420;28;20627;-62
2022/06/03 12:21:49;;;;;;;5.53;1.77;;;24.10;99.90;;;;;;5070962;28;20258;-61
2022/06/03 12:24:43;;;;;;;2.73;1.90;;;24.30;99.90;;;;;;5064482;28;20233;-60
2022/06/03 12:27:20;;;;;;;2.53;1.67;;;24.00;99.90;;;;;;5070753;28;20209;-58
2022/06/03 12:29:58;;;;;;;3.13;1.80;;;23.90;99.90;;;;;;5070694;28;20254;-63
2022/06/03 12:32:28;;;;;;;2.80;1.57;;;23.90;99.90;;;;;;5070772;28;20282;-63
2022/06/03 12:35:28;;;;;;;2.33;1.70;;;23.80;99.90;;;;;;5071678;28;20720;-64
2022/06/03 12:38:31;;;;;;;1.83;1.60;;;23.70;99.90;;;;;;5074320;28;20562;-63
2022/06/03 12:40:59;;;;;;;3.33;1.63;;;23.90;99.90;;;;;;5073884;28;20224;-63
2022/06/03 12:43:31;;;;;;;3.00;1.87;;;23.90;99.90;;;;;;5074061;28;20243;-62
2022/06/03 12:46:00;;;;;;;3.27;1.80;;;23.70;99.90;;;;;;5073544;28;20663;-63
2022/06/03 12:48:47;;;;;;;1.80;1.53;;;23.70;99.90;;;;;;5074297;28;20632;-62
2022/06/03 12:51:24;;;;;;;3.03;1.73;;;23.90;99.90;;;;;;5074295;28;20251;-62
2022/06/03 12:53:53;;;;;;;2.40;1.77;;;24.00;99.90;;;;;;5073786;28;20756;-63
2022/06/03 12:56:42;;;;;;;2.13;1.60;;;23.80;99.90;;;;;;5073581;28;20217;-62
2022/06/03 12:59:23;;;;;;;1.67;1.57;;;23.60;99.90;;;;;;5071931;28;20205;-63
2022/06/03 13:02:00;;;;;;;2.80;1.60;;;23.50;99.90;;;;;;5074133;28;20312;-62
2022/06/03 13:04:58;;;;;;;3.10;2.20;;;23.80;99.90;;;;;;5073917;28;20274;-61
2022/06/03 13:07:36;;;;;;;2.87;1.90;;;23.90;99.90;;;;;;5065402;28;20299;-61
2022/06/03 13:10:26;;;;;;;2.60;1.67;;;23.90;99.90;;;;;;5073578;28;20690;-62
2022/06/03 13:12:55;;;;;;;4.00;1.63;;;23.70;99.90;;;;;;5073666;28;20205;-61
2022/06/03 13:15:45;;;;;;;1.50;1.40;;;23.70;99.90;;;;;;5073521;28;20217;-63
2022/06/03 13:18:18;;;;;;;1.63;1.50;;;24.00;99.90;;;;;;5068117;28;20245;-63
2022/06/03 13:20:47;;;;;;;3.13;1.60;;;24.20;99.90;;;;;;5073488;28;20585;-63
2022/06/03 13:23:33;;;;;;;2.30;1.70;;;24.30;99.90;;;;;;5073216;28;20225;-64
2022/06/03 13:26:34;;;;;;;2.37;1.17;;;24.40;99.90;;;;;;5073234;28;20288;-64
2022/06/03 13:29:02;;;;;;;1.53;1.43;;;24.60;99.90;;;;;;5073127;28;20266;-64
2022/06/03 13:32:01;;;;;;;1.90;1.80;;;24.90;99.90;;;;;;5073176;28;20201;-64
2022/06/03 13:34:31;;;;;;;1.83;1.40;;;24.90;99.90;;;;;;5072476;28;20308;-60
2022/06/03 13:37:36;;;;;;;3.70;1.47;;;25.10;99.90;;;;;;5072886;28;20228;-61
2022/06/03 13:40:17;;;;;;;4.17;2.37;;;25.40;99.90;;;;;;5052796;28;20212;-60
2022/06/03 13:43:18;;;;;;;3.30;1.50;;;25.50;99.90;;;;;;5073555;28;20281;-60
2022/06/03 13:45:58;;;;;;;2.40;1.53;;;25.50;99.90;;;;;;5072422;28;20208;-60
2022/06/03 13:48:46;;;;;;;1.90;1.50;;;25.50;99.90;;;;;;5073382;28;20205;-60
2022/06/03 13:51:33;;;;;;;2.50;1.40;;;25.20;99.90;;;;;;5065969;28;20262;-61
2022/06/03 13:54:02;;;;;;;3.17;1.70;;;25.30;99.90;;;;;;5064614;28;20231;-61
2022/06/03 13:56:31;;;;;;;1.50;1.40;;;25.40;99.90;;;;;;5072367;28;20274;-60
2022/06/03 13:59:00;;;;;;;2.30;1.63;;;25.20;99.90;;;;;;5073367;28;20209;-61
2022/06/03 14:01:31;;;;;;;2.37;1.70;;;25.00;99.90;;;;;;5073053;28;20221;-61
2022/06/03 14:04:02;;;;;;;3.10;1.57;;;24.70;99.90;;;;;;5073326;28;20228;-60
2022/06/03 14:06:36;;;;;;;1.60;1.50;;;24.60;99.90;;;;;;5072388;28;20258;-60
2022/06/03 14:09:18;;;;;;;1.67;1.47;;;24.60;99.90;;;;;;5072778;28;20205;-61
2022/06/03 14:11:47;;;;;;;3.67;1.93;;;24.50;99.90;;;;;;5073158;28;20258;-61
2022/06/03 14:14:20;;;;;;;2.73;1.60;;;24.50;99.90;;;;;;5072305;28;20711;-61
2022/06/03 14:16:50;;;;;;;2.40;1.73;;;24.60;99.90;;;;;;5072581;28;20205;-61
2022/06/03 14:19:42;;;;;;;1.70;1.60;;;24.50;99.90;;;;;;5072623;28;20212;-60
2022/06/03 14:22:21;;;;;;;2.87;1.50;;;24.40;99.90;;;;;;5072962;28;20279;-61
2022/06/03 14:25:00;;;;;;;3.03;1.63;;;24.40;99.90;;;;;;5072337;28;20247;-60
2022/06/03 14:27:33;;;;;;;1.70;1.60;;;24.50;99.90;;;;;;5072140;28;20676;-61
2022/06/03 14:30:07;;;;;;;3.77;2.07;;;24.40;99.90;;;;;;5072698;28;20212;-61
2022/06/03 14:32:37;;;;;;;3.73;1.60;;;24.50;99.90;;;;;;5072574;28;20259;-60
2022/06/03 14:35:09;;;;;;;2.20;1.83;;;24.50;99.90;;;;;;5072785;28;20282;-61